Municipal

About
Name: Municipal
Identifier:  LAA/KLAA
Local Time:  20. Aug 08:08 MDT
Location
Flights per Day
0 flights
Distance: 258km (160mi)
Punctuality
50% (0 flights per day delayed)
Delay Average: 23 minutes
Current Weather
 24 C (Humidity: 41%)
  13kt (24km/h / 14mph) from 190°
  16km (10 mi.)
 
 METAR KLAA 201253Z AUTO 19013KT 10SM CLR 24/10 A2999 RMK AO2 SLP094 T02440100

Current Flights

Departures
Number Departure To Airline
Arrivals
Number Arrival From Airline

Current Delays

Departures
N/A
Arrivals
N/A

Destinations

Top Destinations
Airport Flights
per week
Seats
per week
  Denver (DEN) 3 - 0 0
  Denver (APA) 3 - 0 0
  Colorado Springs (COS) 1 - 0 0
  Pueblo (PUB) 1 - 0 0
  Ogden (OGD) 0 - 0 0
  Farmington (FMN) 0 - 0 0
  Denver (QQH) 0 - 0 0
  Salina (SLN) 0 - 0 0
  Van Nuys (VNY) 0 - 0 0
  Oklahoma City (PWA) 0 - 0 0
  Cheyenne (CYS) 0 - 0 0
  Norman (OUN) 0 - 0 0
  Dodge City (DDC) 0 - 0 0

Airlines & Planes

Top Airlines
Airline Flights
per Day
Seats
per Day
  Nolinor Aviation 0 -
Nordwind Airlines 0 -
  Key Lime Air 0 -
Jet Charter Inc ( Franklin Lakes Nj ) 0 -
  Flybe Nordic 0 -
EagleMed 0 -
  Novair 0 -
Top Plane Types
Model Flights Seats
Fairchild SA227-DC Metro 23 0.9/day - 0
Beech B200 Super King Air 0.2/day - 0
Pilatus PC-12 0.1/day - 0
Beech G36 Bonanza 0.1/day - 0
Beech E90 King Air 0.1/day - 0
Cessna C182 0.1/day - 0
Piper PA28-181 0.1/day - 0
Beech B300 Super King Air 350 0.0/day - 0